sensor_id;sensor_type;location;lat;lon;timestamp;P1;durP1;ratioP1;P2;durP2;ratioP2
16181;SDS011;8197;51.664;7.114;2024-01-30T00:00:57;23.30;;;8.87;;
16181;SDS011;8197;51.664;7.114;2024-01-30T00:06:00;24.93;;;8.07;;
16181;SDS011;8197;51.664;7.114;2024-01-30T00:11:06;28.17;;;9.03;;
16181;SDS011;8197;51.664;7.114;2024-01-30T00:16:19;28.37;;;8.63;;
16181;SDS011;8197;51.664;7.114;2024-01-30T00:21:22;27.77;;;8.70;;
16181;SDS011;8197;51.664;7.114;2024-01-30T00:26:27;26.93;;;8.20;;
16181;SDS011;8197;51.664;7.114;2024-01-30T00:31:30;21.50;;;7.20;;
16181;SDS011;8197;51.664;7.114;2024-01-30T00:36:33;23.57;;;8.07;;
16181;SDS011;8197;51.664;7.114;2024-01-30T00:41:38;24.00;;;7.73;;
16181;SDS011;8197;51.664;7.114;2024-01-30T00:46:41;22.37;;;8.20;;
16181;SDS011;8197;51.664;7.114;2024-01-30T00:51:43;23.13;;;7.60;;
16181;SDS011;8197;51.664;7.114;2024-01-30T00:56:48;24.10;;;8.50;;
16181;SDS011;8197;51.664;7.114;2024-01-30T01:01:51;24.20;;;8.50;;
16181;SDS011;8197;51.664;7.114;2024-01-30T01:06:54;23.13;;;8.67;;
16181;SDS011;8197;51.664;7.114;2024-01-30T01:11:58;25.43;;;8.10;;
16181;SDS011;8197;51.664;7.114;2024-01-30T01:17:01;22.23;;;7.33;;
16181;SDS011;8197;51.664;7.114;2024-01-30T01:22:04;24.63;;;8.50;;
16181;SDS011;8197;51.664;7.114;2024-01-30T01:27:09;24.17;;;8.33;;
16181;SDS011;8197;51.664;7.114;2024-01-30T01:32:12;23.17;;;7.80;;
16181;SDS011;8197;51.664;7.114;2024-01-30T01:37:15;26.37;;;9.20;;
16181;SDS011;8197;51.664;7.114;2024-01-30T01:42:19;25.43;;;8.80;;
16181;SDS011;8197;51.664;7.114;2024-01-30T01:47:23;26.27;;;9.37;;
16181;SDS011;8197;51.664;7.114;2024-01-30T01:52:26;26.33;;;8.87;;
16181;SDS011;8197;51.664;7.114;2024-01-30T01:57:31;29.33;;;8.60;;
16181;SDS011;8197;51.664;7.114;2024-01-30T02:02:35;25.17;;;8.27;;
16181;SDS011;8197;51.664;7.114;2024-01-30T02:07:38;34.20;;;8.50;;
16181;SDS011;8197;51.664;7.114;2024-01-30T02:12:43;24.40;;;8.53;;
16181;SDS011;8197;51.664;7.114;2024-01-30T02:17:46;23.70;;;8.60;;
16181;SDS011;8197;51.664;7.114;2024-01-30T02:22:50;30.70;;;8.50;;
16181;SDS011;8197;51.664;7.114;2024-01-30T02:27:54;24.63;;;9.03;;
16181;SDS011;8197;51.664;7.114;2024-01-30T02:32:57;24.23;;;8.13;;
16181;SDS011;8197;51.664;7.114;2024-01-30T02:38:02;23.23;;;8.07;;
16181;SDS011;8197;51.664;7.114;2024-01-30T02:43:05;34.27;;;9.00;;
16181;SDS011;8197;51.664;7.114;2024-01-30T02:48:08;29.33;;;8.67;;
16181;SDS011;8197;51.664;7.114;2024-01-30T02:53:12;25.93;;;8.00;;
16181;SDS011;8197;51.664;7.114;2024-01-30T02:58:15;23.67;;;8.47;;
16181;SDS011;8197;51.664;7.114;2024-01-30T03:03:18;27.17;;;8.10;;
16181;SDS011;8197;51.664;7.114;2024-01-30T03:08:23;25.77;;;7.80;;
16181;SDS011;8197;51.664;7.114;2024-01-30T03:13:26;26.20;;;9.30;;
16181;SDS011;8197;51.664;7.114;2024-01-30T03:18:28;24.50;;;7.10;;
16181;SDS011;8197;51.664;7.114;2024-01-30T03:23:33;21.90;;;8.03;;
16181;SDS011;8197;51.664;7.114;2024-01-30T03:28:36;25.87;;;8.60;;
16181;SDS011;8197;51.664;7.114;2024-01-30T03:33:39;24.77;;;7.30;;
16181;SDS011;8197;51.664;7.114;2024-01-30T03:38:43;29.03;;;8.50;;
16181;SDS011;8197;51.664;7.114;2024-01-30T03:43:46;25.30;;;7.93;;
16181;SDS011;8197;51.664;7.114;2024-01-30T03:48:49;22.73;;;7.50;;
16181;SDS011;8197;51.664;7.114;2024-01-30T03:53:53;24.03;;;8.23;;
16181;SDS011;8197;51.664;7.114;2024-01-30T03:58:56;25.83;;;9.00;;
16181;SDS011;8197;51.664;7.114;2024-01-30T04:04:01;22.97;;;8.23;;
16181;SDS011;8197;51.664;7.114;2024-01-30T04:09:05;23.60;;;8.20;;
16181;SDS011;8197;51.664;7.114;2024-01-30T04:14:08;25.50;;;8.27;;
16181;SDS011;8197;51.664;7.114;2024-01-30T04:19:12;22.37;;;8.00;;
16181;SDS011;8197;51.664;7.114;2024-01-30T04:24:17;24.00;;;7.63;;
16181;SDS011;8197;51.664;7.114;2024-01-30T04:29:20;21.70;;;7.73;;
16181;SDS011;8197;51.664;7.114;2024-01-30T04:34:23;23.10;;;8.20;;
16181;SDS011;8197;51.664;7.114;2024-01-30T04:39:28;26.20;;;7.23;;
16181;SDS011;8197;51.664;7.114;2024-01-30T04:44:30;28.10;;;9.07;;
16181;SDS011;8197;51.664;7.114;2024-01-30T04:49:33;25.40;;;9.07;;
16181;SDS011;8197;51.664;7.114;2024-01-30T04:54:38;31.13;;;9.40;;
16181;SDS011;8197;51.664;7.114;2024-01-30T04:59:41;25.57;;;8.13;;
16181;SDS011;8197;51.664;7.114;2024-01-30T05:04:44;23.07;;;8.17;;
16181;SDS011;8197;51.664;7.114;2024-01-30T05:09:48;24.63;;;8.33;;
16181;SDS011;8197;51.664;7.114;2024-01-30T05:14:51;22.70;;;8.13;;
16181;SDS011;8197;51.664;7.114;2024-01-30T05:19:54;24.10;;;7.70;;
16181;SDS011;8197;51.664;7.114;2024-01-30T05:24:58;23.13;;;7.90;;
16181;SDS011;8197;51.664;7.114;2024-01-30T05:30:01;25.70;;;8.07;;
16181;SDS011;8197;51.664;7.114;2024-01-30T05:35:05;21.13;;;8.30;;
16181;SDS011;8197;51.664;7.114;2024-01-30T05:40:11;23.60;;;7.30;;
16181;SDS011;8197;51.664;7.114;2024-01-30T05:45:14;21.23;;;7.43;;
16181;SDS011;8197;51.664;7.114;2024-01-30T05:50:17;24.10;;;7.73;;
16181;SDS011;8197;51.664;7.114;2024-01-30T05:55:21;25.83;;;8.30;;
16181;SDS011;8197;51.664;7.114;2024-01-30T06:00:24;27.00;;;8.97;;
16181;SDS011;8197;51.664;7.114;2024-01-30T06:05:27;25.80;;;8.57;;
16181;SDS011;8197;51.664;7.114;2024-01-30T06:10:31;25.47;;;8.00;;
16181;SDS011;8197;51.664;7.114;2024-01-30T06:15:34;23.37;;;7.67;;
16181;SDS011;8197;51.664;7.114;2024-01-30T06:20:37;24.63;;;8.00;;
16181;SDS011;8197;51.664;7.114;2024-01-30T06:25:41;23.80;;;8.00;;
16181;SDS011;8197;51.664;7.114;2024-01-30T06:30:44;24.73;;;8.60;;
16181;SDS011;8197;51.664;7.114;2024-01-30T06:35:47;24.20;;;9.37;;
16181;SDS011;8197;51.664;7.114;2024-01-30T06:40:52;26.00;;;9.10;;
16181;SDS011;8197;51.664;7.114;2024-01-30T06:45:55;27.70;;;8.67;;
16181;SDS011;8197;51.664;7.114;2024-01-30T06:50:58;39.00;;;9.97;;
16181;SDS011;8197;51.664;7.114;2024-01-30T06:56:02;34.20;;;10.13;;
16181;SDS011;8197;51.664;7.114;2024-01-30T07:01:06;42.63;;;11.43;;
16181;SDS011;8197;51.664;7.114;2024-01-30T07:06:09;29.00;;;9.30;;
16181;SDS011;8197;51.664;7.114;2024-01-30T07:11:19;28.37;;;9.10;;
16181;SDS011;8197;51.664;7.114;2024-01-30T07:16:23;23.60;;;7.87;;
16181;SDS011;8197;51.664;7.114;2024-01-30T07:21:26;23.40;;;7.40;;
16181;SDS011;8197;51.664;7.114;2024-01-30T07:26:31;23.00;;;7.37;;
16181;SDS011;8197;51.664;7.114;2024-01-30T07:31:34;26.93;;;8.03;;
16181;SDS011;8197;51.664;7.114;2024-01-30T07:36:37;20.80;;;6.57;;
16181;SDS011;8197;51.664;7.114;2024-01-30T07:41:41;22.60;;;6.80;;
16181;SDS011;8197;51.664;7.114;2024-01-30T07:46:44;22.17;;;7.20;;
16181;SDS011;8197;51.664;7.114;2024-01-30T07:51:47;21.97;;;6.77;;
16181;SDS011;8197;51.664;7.114;2024-01-30T08:02:52;27.57;;;7.80;;
16181;SDS011;8197;51.664;7.114;2024-01-30T08:07:55;19.40;;;7.20;;
16181;SDS011;8197;51.664;7.114;2024-01-30T08:12:58;25.60;;;8.20;;
16181;SDS011;8197;51.664;7.114;2024-01-30T08:18:03;22.50;;;7.20;;
16181;SDS011;8197;51.664;7.114;2024-01-30T08:23:08;25.50;;;7.70;;
16181;SDS011;8197;51.664;7.114;2024-01-30T08:28:11;22.03;;;7.10;;
16181;SDS011;8197;51.664;7.114;2024-01-30T08:33:17;27.40;;;8.43;;
16181;SDS011;8197;51.664;7.114;2024-01-30T08:38:20;25.60;;;7.90;;
16181;SDS011;8197;51.664;7.114;2024-01-30T08:43:23;26.60;;;7.40;;
16181;SDS011;8197;51.664;7.114;2024-01-30T08:48:27;24.20;;;8.20;;
16181;SDS011;8197;51.664;7.114;2024-01-30T08:53:31;26.33;;;7.40;;
16181;SDS011;8197;51.664;7.114;2024-01-30T08:58:33;24.73;;;6.90;;
16181;SDS011;8197;51.664;7.114;2024-01-30T09:03:38;25.53;;;7.87;;
16181;SDS011;8197;51.664;7.114;2024-01-30T09:08:42;24.87;;;7.57;;
16181;SDS011;8197;51.664;7.114;2024-01-30T09:13:45;24.87;;;7.00;;
16181;SDS011;8197;51.664;7.114;2024-01-30T09:18:49;26.63;;;7.93;;
16181;SDS011;8197;51.664;7.114;2024-01-30T09:23:53;20.53;;;6.60;;
16181;SDS011;8197;51.664;7.114;2024-01-30T09:28:56;25.60;;;7.70;;
16181;SDS011;8197;51.664;7.114;2024-01-30T09:34:01;30.97;;;7.83;;
16181;SDS011;8197;51.664;7.114;2024-01-30T09:39:04;64.07;;;30.10;;
16181;SDS011;8197;51.664;7.114;2024-01-30T09:44:08;29.80;;;11.07;;
16181;SDS011;8197;51.664;7.114;2024-01-30T09:49:15;36.23;;;17.03;;
16181;SDS011;8197;51.664;7.114;2024-01-30T09:54:21;27.20;;;8.23;;
16181;SDS011;8197;51.664;7.114;2024-01-30T09:59:24;27.67;;;7.57;;
16181;SDS011;8197;51.664;7.114;2024-01-30T10:04:29;23.33;;;7.47;;
16181;SDS011;8197;51.664;7.114;2024-01-30T10:09:32;25.53;;;7.60;;
16181;SDS011;8197;51.664;7.114;2024-01-30T10:14:37;22.90;;;7.40;;
16181;SDS011;8197;51.664;7.114;2024-01-30T10:19:42;23.03;;;6.97;;
16181;SDS011;8197;51.664;7.114;2024-01-30T10:24:46;23.40;;;6.20;;
16181;SDS011;8197;51.664;7.114;2024-01-30T10:29:50;26.63;;;6.93;;
16181;SDS011;8197;51.664;7.114;2024-01-30T10:34:55;22.30;;;6.50;;
16181;SDS011;8197;51.664;7.114;2024-01-30T10:39:58;25.07;;;6.60;;
16181;SDS011;8197;51.664;7.114;2024-01-30T10:45:07;21.90;;;5.00;;
16181;SDS011;8197;51.664;7.114;2024-01-30T10:50:15;22.03;;;5.40;;
16181;SDS011;8197;51.664;7.114;2024-01-30T10:55:19;23.70;;;6.60;;
16181;SDS011;8197;51.664;7.114;2024-01-30T11:00:27;22.10;;;5.67;;
16181;SDS011;8197;51.664;7.114;2024-01-30T11:05:32;23.43;;;6.27;;
16181;SDS011;8197;51.664;7.114;2024-01-30T11:10:43;23.77;;;7.27;;
16181;SDS011;8197;51.664;7.114;2024-01-30T11:15:47;23.70;;;6.70;;
16181;SDS011;8197;51.664;7.114;2024-01-30T11:20:52;20.33;;;6.00;;
16181;SDS011;8197;51.664;7.114;2024-01-30T11:25:58;17.93;;;4.60;;
16181;SDS011;8197;51.664;7.114;2024-01-30T11:31:04;23.40;;;6.80;;
16181;SDS011;8197;51.664;7.114;2024-01-30T11:36:09;28.60;;;8.13;;
16181;SDS011;8197;51.664;7.114;2024-01-30T11:41:15;24.50;;;7.07;;
16181;SDS011;8197;51.664;7.114;2024-01-30T11:46:19;23.83;;;7.70;;
16181;SDS011;8197;51.664;7.114;2024-01-30T11:51:25;20.87;;;5.87;;
16181;SDS011;8197;51.664;7.114;2024-01-30T11:56:28;29.90;;;7.30;;
16181;SDS011;8197;51.664;7.114;2024-01-30T12:01:32;22.10;;;4.87;;
16181;SDS011;8197;51.664;7.114;2024-01-30T12:06:36;25.93;;;7.50;;
16181;SDS011;8197;51.664;7.114;2024-01-30T12:11:43;24.20;;;7.63;;
16181;SDS011;8197;51.664;7.114;2024-01-30T12:16:48;29.20;;;8.97;;
16181;SDS011;8197;51.664;7.114;2024-01-30T12:21:56;25.20;;;7.40;;
16181;SDS011;8197;51.664;7.114;2024-01-30T12:27:00;30.30;;;8.40;;
16181;SDS011;8197;51.664;7.114;2024-01-30T12:32:03;29.23;;;7.27;;
16181;SDS011;8197;51.664;7.114;2024-01-30T12:37:08;25.23;;;7.63;;
16181;SDS011;8197;51.664;7.114;2024-01-30T12:42:13;29.57;;;6.07;;
16181;SDS011;8197;51.664;7.114;2024-01-30T12:47:16;25.63;;;7.00;;
16181;SDS011;8197;51.664;7.114;2024-01-30T12:52:21;28.97;;;7.60;;
16181;SDS011;8197;51.664;7.114;2024-01-30T12:57:25;23.37;;;7.23;;
16181;SDS011;8197;51.664;7.114;2024-01-30T13:02:28;24.43;;;7.70;;
16181;SDS011;8197;51.664;7.114;2024-01-30T13:07:43;24.30;;;7.80;;
16181;SDS011;8197;51.664;7.114;2024-01-30T13:12:46;24.67;;;9.03;;
16181;SDS011;8197;51.664;7.114;2024-01-30T13:17:49;27.13;;;7.90;;
16181;SDS011;8197;51.664;7.114;2024-01-30T13:22:57;25.60;;;7.00;;
16181;SDS011;8197;51.664;7.114;2024-01-30T13:28:00;29.90;;;7.90;;
16181;SDS011;8197;51.664;7.114;2024-01-30T13:33:04;24.00;;;7.57;;
16181;SDS011;8197;51.664;7.114;2024-01-30T13:38:09;29.17;;;8.20;;
16181;SDS011;8197;51.664;7.114;2024-01-30T13:43:12;28.37;;;6.77;;
16181;SDS011;8197;51.664;7.114;2024-01-30T13:48:15;30.97;;;8.37;;
16181;SDS011;8197;51.664;7.114;2024-01-30T13:53:20;24.53;;;7.60;;
16181;SDS011;8197;51.664;7.114;2024-01-30T13:58:23;48.83;;;16.23;;
16181;SDS011;8197;51.664;7.114;2024-01-30T14:03:26;25.33;;;8.90;;
16181;SDS011;8197;51.664;7.114;2024-01-30T14:08:31;27.90;;;8.47;;
16181;SDS011;8197;51.664;7.114;2024-01-30T14:13:35;34.30;;;8.17;;
16181;SDS011;8197;51.664;7.114;2024-01-30T14:18:38;24.30;;;7.87;;
16181;SDS011;8197;51.664;7.114;2024-01-30T14:23:44;30.07;;;9.73;;
16181;SDS011;8197;51.664;7.114;2024-01-30T14:28:48;32.03;;;8.30;;
16181;SDS011;8197;51.664;7.114;2024-01-30T14:33:51;29.90;;;9.40;;
16181;SDS011;8197;51.664;7.114;2024-01-30T14:38:55;32.43;;;9.27;;
16181;SDS011;8197;51.664;7.114;2024-01-30T14:43:59;26.43;;;8.37;;
16181;SDS011;8197;51.664;7.114;2024-01-30T14:49:03;31.63;;;7.87;;
16181;SDS011;8197;51.664;7.114;2024-01-30T14:54:09;28.93;;;8.13;;
16181;SDS011;8197;51.664;7.114;2024-01-30T14:59:12;29.90;;;7.60;;
16181;SDS011;8197;51.664;7.114;2024-01-30T15:04:15;20.93;;;6.53;;
16181;SDS011;8197;51.664;7.114;2024-01-30T15:09:23;20.13;;;5.47;;
16181;SDS011;8197;51.664;7.114;2024-01-30T15:14:31;22.77;;;5.00;;
16181;SDS011;8197;51.664;7.114;2024-01-30T15:19:34;16.80;;;3.40;;
16181;SDS011;8197;51.664;7.114;2024-01-30T15:24:39;18.63;;;2.17;;
16181;SDS011;8197;51.664;7.114;2024-01-30T15:29:42;16.23;;;2.30;;
16181;SDS011;8197;51.664;7.114;2024-01-30T15:34:47;16.80;;;1.77;;
16181;SDS011;8197;51.664;7.114;2024-01-30T15:39:52;18.10;;;1.83;;
16181;SDS011;8197;51.664;7.114;2024-01-30T15:44:55;14.50;;;1.80;;
16181;SDS011;8197;51.664;7.114;2024-01-30T15:49:59;23.00;;;2.07;;
16181;SDS011;8197;51.664;7.114;2024-01-30T15:55:04;17.67;;;1.50;;
16181;SDS011;8197;51.664;7.114;2024-01-30T16:00:08;16.63;;;1.60;;
16181;SDS011;8197;51.664;7.114;2024-01-30T16:05:13;15.00;;;1.40;;
16181;SDS011;8197;51.664;7.114;2024-01-30T16:10:21;17.67;;;1.47;;
16181;SDS011;8197;51.664;7.114;2024-01-30T16:15:24;12.97;;;1.10;;
16181;SDS011;8197;51.664;7.114;2024-01-30T16:20:27;15.53;;;1.77;;
16181;SDS011;8197;51.664;7.114;2024-01-30T16:25:32;17.20;;;1.70;;
16181;SDS011;8197;51.664;7.114;2024-01-30T16:30:35;15.13;;;1.60;;
16181;SDS011;8197;51.664;7.114;2024-01-30T16:35:40;16.53;;;1.00;;
16181;SDS011;8197;51.664;7.114;2024-01-30T16:40:48;18.10;;;2.10;;
16181;SDS011;8197;51.664;7.114;2024-01-30T16:45:52;15.57;;;1.53;;
16181;SDS011;8197;51.664;7.114;2024-01-30T16:50:55;25.40;;;1.70;;
16181;SDS011;8197;51.664;7.114;2024-01-30T16:56:00;17.93;;;1.90;;
16181;SDS011;8197;51.664;7.114;2024-01-30T17:01:03;14.10;;;1.50;;
16181;SDS011;8197;51.664;7.114;2024-01-30T17:06:06;20.57;;;1.87;;
16181;SDS011;8197;51.664;7.114;2024-01-30T17:11:11;20.93;;;1.90;;
16181;SDS011;8197;51.664;7.114;2024-01-30T17:16:13;14.97;;;1.37;;
16181;SDS011;8197;51.664;7.114;2024-01-30T17:21:25;15.03;;;1.60;;
16181;SDS011;8197;51.664;7.114;2024-01-30T17:26:31;13.03;;;1.10;;
16181;SDS011;8197;51.664;7.114;2024-01-30T17:31:34;18.20;;;2.40;;
16181;SDS011;8197;51.664;7.114;2024-01-30T17:36:38;16.60;;;3.77;;
16181;SDS011;8197;51.664;7.114;2024-01-30T17:41:43;20.63;;;5.80;;
16181;SDS011;8197;51.664;7.114;2024-01-30T17:46:46;19.83;;;5.43;;
16181;SDS011;8197;51.664;7.114;2024-01-30T17:51:49;16.53;;;3.93;;
16181;SDS011;8197;51.664;7.114;2024-01-30T17:56:53;20.47;;;5.30;;
16181;SDS011;8197;51.664;7.114;2024-01-30T18:01:56;17.07;;;3.40;;
16181;SDS011;8197;51.664;7.114;2024-01-30T18:06:59;18.00;;;4.80;;
16181;SDS011;8197;51.664;7.114;2024-01-30T18:12:04;22.50;;;7.20;;
16181;SDS011;8197;51.664;7.114;2024-01-30T18:17:11;24.43;;;8.80;;
16181;SDS011;8197;51.664;7.114;2024-01-30T18:22:14;28.40;;;9.17;;
16181;SDS011;8197;51.664;7.114;2024-01-30T18:27:18;27.00;;;9.70;;
16181;SDS011;8197;51.664;7.114;2024-01-30T18:32:22;29.03;;;10.07;;
16181;SDS011;8197;51.664;7.114;2024-01-30T18:37:25;29.13;;;10.50;;
16181;SDS011;8197;51.664;7.114;2024-01-30T18:42:29;31.63;;;9.57;;
16181;SDS011;8197;51.664;7.114;2024-01-30T18:47:32;27.13;;;9.17;;
16181;SDS011;8197;51.664;7.114;2024-01-30T18:52:35;24.20;;;9.13;;
16181;SDS011;8197;51.664;7.114;2024-01-30T18:57:40;31.33;;;8.67;;
16181;SDS011;8197;51.664;7.114;2024-01-30T19:02:42;26.17;;;9.37;;
16181;SDS011;8197;51.664;7.114;2024-01-30T19:07:45;23.53;;;8.07;;
16181;SDS011;8197;51.664;7.114;2024-01-30T19:12:52;26.80;;;8.30;;
16181;SDS011;8197;51.664;7.114;2024-01-30T19:17:57;25.40;;;9.30;;
16181;SDS011;8197;51.664;7.114;2024-01-30T19:23:01;27.93;;;9.53;;
16181;SDS011;8197;51.664;7.114;2024-01-30T19:28:05;27.37;;;11.60;;
16181;SDS011;8197;51.664;7.114;2024-01-30T19:33:08;28.07;;;10.30;;
16181;SDS011;8197;51.664;7.114;2024-01-30T19:38:11;30.37;;;11.73;;
16181;SDS011;8197;51.664;7.114;2024-01-30T19:43:16;28.27;;;11.10;;
16181;SDS011;8197;51.664;7.114;2024-01-30T19:48:20;28.63;;;12.53;;
16181;SDS011;8197;51.664;7.114;2024-01-30T19:53:23;25.03;;;9.53;;
16181;SDS011;8197;51.664;7.114;2024-01-30T19:58:27;26.33;;;11.03;;
16181;SDS011;8197;51.664;7.114;2024-01-30T20:03:30;31.40;;;10.20;;
16181;SDS011;8197;51.664;7.114;2024-01-30T20:08:34;24.20;;;9.83;;
16181;SDS011;8197;51.664;7.114;2024-01-30T20:13:38;29.40;;;12.07;;
16181;SDS011;8197;51.664;7.114;2024-01-30T20:18:42;22.87;;;7.40;;
16181;SDS011;8197;51.664;7.114;2024-01-30T20:23:45;28.50;;;10.57;;
16181;SDS011;8197;51.664;7.114;2024-01-30T20:28:51;33.83;;;12.00;;
16181;SDS011;8197;51.664;7.114;2024-01-30T20:33:55;28.60;;;11.10;;
16181;SDS011;8197;51.664;7.114;2024-01-30T20:38:59;38.37;;;12.37;;
16181;SDS011;8197;51.664;7.114;2024-01-30T20:44:03;33.37;;;12.33;;
16181;SDS011;8197;51.664;7.114;2024-01-30T20:49:06;31.27;;;13.50;;
16181;SDS011;8197;51.664;7.114;2024-01-30T20:54:13;27.50;;;12.43;;
16181;SDS011;8197;51.664;7.114;2024-01-30T20:59:18;30.60;;;11.80;;
16181;SDS011;8197;51.664;7.114;2024-01-30T21:04:21;34.40;;;10.70;;
16181;SDS011;8197;51.664;7.114;2024-01-30T21:09:25;37.70;;;13.13;;
16181;SDS011;8197;51.664;7.114;2024-01-30T21:14:29;36.37;;;15.90;;
16181;SDS011;8197;51.664;7.114;2024-01-30T21:19:32;32.43;;;14.63;;
16181;SDS011;8197;51.664;7.114;2024-01-30T21:24:35;36.30;;;15.17;;
16181;SDS011;8197;51.664;7.114;2024-01-30T21:29:39;35.33;;;14.70;;
16181;SDS011;8197;51.664;7.114;2024-01-30T21:34:44;34.53;;;15.50;;
16181;SDS011;8197;51.664;7.114;2024-01-30T21:39:47;36.27;;;16.27;;
16181;SDS011;8197;51.664;7.114;2024-01-30T21:44:51;40.90;;;17.60;;
16181;SDS011;8197;51.664;7.114;2024-01-30T21:49:56;36.30;;;12.80;;
16181;SDS011;8197;51.664;7.114;2024-01-30T21:54:59;37.70;;;15.37;;
16181;SDS011;8197;51.664;7.114;2024-01-30T22:00:04;39.70;;;17.53;;
16181;SDS011;8197;51.664;7.114;2024-01-30T22:05:11;46.17;;;19.10;;
16181;SDS011;8197;51.664;7.114;2024-01-30T22:10:14;39.40;;;16.57;;
16181;SDS011;8197;51.664;7.114;2024-01-30T22:15:19;39.07;;;16.50;;
16181;SDS011;8197;51.664;7.114;2024-01-30T22:20:21;42.20;;;19.83;;
16181;SDS011;8197;51.664;7.114;2024-01-30T22:25:24;36.10;;;16.17;;
16181;SDS011;8197;51.664;7.114;2024-01-30T22:30:29;40.70;;;17.00;;
16181;SDS011;8197;51.664;7.114;2024-01-30T22:35:32;37.77;;;13.90;;
16181;SDS011;8197;51.664;7.114;2024-01-30T22:40:35;34.30;;;13.67;;
16181;SDS011;8197;51.664;7.114;2024-01-30T22:45:39;31.13;;;11.00;;
16181;SDS011;8197;51.664;7.114;2024-01-30T22:50:42;32.70;;;12.40;;
16181;SDS011;8197;51.664;7.114;2024-01-30T22:55:46;29.30;;;8.43;;
16181;SDS011;8197;51.664;7.114;2024-01-30T23:00:50;25.97;;;8.93;;
16181;SDS011;8197;51.664;7.114;2024-01-30T23:05:53;26.17;;;7.93;;
16181;SDS011;8197;51.664;7.114;2024-01-30T23:10:56;25.27;;;8.20;;
16181;SDS011;8197;51.664;7.114;2024-01-30T23:16:01;25.20;;;8.20;;
16181;SDS011;8197;51.664;7.114;2024-01-30T23:21:04;29.70;;;7.60;;
16181;SDS011;8197;51.664;7.114;2024-01-30T23:26:07;27.30;;;6.37;;
16181;SDS011;8197;51.664;7.114;2024-01-30T23:31:11;28.97;;;6.50;;
16181;SDS011;8197;51.664;7.114;2024-01-30T23:36:14;31.50;;;7.93;;
16181;SDS011;8197;51.664;7.114;2024-01-30T23:41:18;29.00;;;6.77;;
16181;SDS011;8197;51.664;7.114;2024-01-30T23:46:22;33.67;;;7.77;;
16181;SDS011;8197;51.664;7.114;2024-01-30T23:51:25;33.57;;;7.70;;
16181;SDS011;8197;51.664;7.114;2024-01-30T23:56:28;32.97;;;6.63;;
